createdAt,value
2022-08-25T00:38:10.426Z,9.50
2022-08-25T00:44:33.200Z,5.93
2022-08-25T00:50:52.844Z,7.88
2022-08-25T00:57:18.318Z,7.57
2022-08-25T01:03:33.505Z,4.97
2022-08-25T01:09:38.466Z,6.95
2022-08-25T01:15:42.598Z,10.20
2022-08-25T01:21:52.642Z,10.63
2022-08-25T01:27:54.834Z,9.90
2022-08-25T01:33:57.946Z,9.70
2022-08-25T01:39:59.965Z,8.32
2022-08-25T01:46:02.548Z,10.90
2022-08-25T01:52:45.166Z,8.02
2022-08-25T01:58:49.097Z,7.43
2022-08-25T02:04:50.917Z,5.75
2022-08-25T02:10:55.763Z,6.72
2022-08-25T02:16:57.981Z,7.88
2022-08-25T02:23:31.562Z,8.02
2022-08-25T02:29:36.574Z,8.00
2022-08-25T02:35:38.748Z,8.02
2022-08-25T02:41:40.956Z,10.25
2022-08-25T02:47:42.973Z,6.22
2022-08-25T02:53:46.243Z,9.63
2022-08-25T02:59:48.497Z,7.68
2022-08-25T03:05:50.651Z,11.38
2022-08-25T03:11:52.458Z,9.10
2022-08-25T03:17:55.537Z,10.60
2022-08-25T03:23:57.383Z,9.07
2022-08-25T03:29:59.398Z,10.85
2022-08-25T03:36:01.167Z,11.48
2022-08-25T03:42:04.553Z,8.50
2022-08-25T03:48:06.439Z,12.05
2022-08-25T03:54:10.956Z,13.05
2022-08-25T04:00:13.039Z,10.90
2022-08-25T04:06:16.735Z,10.45
2022-08-25T04:12:21.776Z,8.77
2022-08-25T04:18:24.619Z,10.73
2022-08-25T04:24:26.521Z,9.57
2022-08-25T04:30:28.410Z,8.52
2022-08-25T04:36:30.433Z,13.10
2022-08-25T04:42:32.226Z,13.15
2022-08-25T04:48:34.674Z,10.65
2022-08-25T04:54:37.251Z,9.65
2022-08-25T05:00:40.664Z,11.88
2022-08-25T05:06:43.544Z,9.90
2022-08-25T05:12:48.252Z,9.98
2022-08-25T05:18:51.895Z,12.43
2022-08-25T05:24:56.403Z,13.75
2022-08-25T05:31:00.345Z,13.82
2022-08-25T05:37:08.205Z,11.85
2022-08-25T05:43:14.680Z,16.33
2022-08-25T05:49:16.538Z,8.13
2022-08-25T05:55:18.556Z,9.63
2022-08-25T06:01:43.575Z,10.18
2022-08-25T06:07:49.388Z,12.30
2022-08-25T06:13:51.175Z,11.77
2022-08-25T06:19:54.750Z,12.18
2022-08-25T06:25:56.631Z,14.27
2022-08-25T06:31:58.504Z,11.52
2022-08-25T06:38:01.302Z,9.57
2022-08-25T06:44:05.066Z,9.43
2022-08-25T06:50:07.750Z,13.23
2022-08-25T06:56:10.031Z,8.85
2022-08-25T07:02:11.910Z,9.77
2022-08-25T07:08:13.764Z,11.75
2022-08-25T07:14:17.609Z,15.20
2022-08-25T07:20:19.630Z,9.68
2022-08-25T07:26:40.854Z,8.57
2022-08-25T07:32:43.314Z,14.82
2022-08-25T07:38:45.559Z,13.90
2022-08-25T07:44:47.665Z,7.25
2022-08-25T07:50:49.751Z,13.38
2022-08-25T07:56:51.639Z,9.27
2022-08-25T08:02:55.595Z,10.70
2022-08-25T08:08:58.826Z,10.18
2022-08-25T08:15:01.430Z,12.68
2022-08-25T08:21:03.523Z,12.98
2022-08-25T08:27:07.655Z,10.35
2022-08-25T08:33:11.349Z,15.00
2022-08-25T08:39:13.845Z,20.40
2022-08-25T08:45:40.464Z,13.07
2022-08-25T08:51:54.997Z,19.10
2022-08-25T08:58:00.694Z,16.45
2022-08-25T09:04:13.275Z,18.67
2022-08-25T09:10:19.156Z,17.02
2022-08-25T09:16:56.171Z,14.43
2022-08-25T09:22:57.860Z,14.85
2022-08-25T09:29:16.324Z,20.52
2022-08-25T09:35:22.553Z,17.90
2022-08-25T09:41:51.507Z,16.52
2022-08-25T09:47:53.371Z,19.05
2022-08-25T09:54:02.781Z,14.10
2022-08-25T10:00:33.382Z,15.98
2022-08-25T10:06:47.146Z,13.80
2022-08-25T10:12:51.518Z,18.67
2022-08-25T10:19:12.304Z,21.02
2022-08-25T10:25:19.941Z,20.52
2022-08-25T10:31:45.148Z,17.63
2022-08-25T10:38:11.070Z,18.05
2022-08-25T10:44:48.149Z,14.68
2022-08-25T10:50:54.999Z,18.17
2022-08-25T10:57:18.224Z,14.27
2022-08-25T11:03:30.466Z,16.77
2022-08-25T11:09:51.129Z,14.60
2022-08-25T11:16:17.633Z,18.88
2022-08-25T11:28:57.611Z,13.02
2022-08-25T11:35:02.397Z,16.52
2022-08-25T11:41:28.552Z,15.05
2022-08-25T11:47:53.371Z,15.77
2022-08-25T11:54:13.989Z,13.38
2022-08-25T12:00:19.582Z,11.10
2022-08-25T12:06:26.370Z,10.98
2022-08-25T12:12:37.877Z,12.18
2022-08-25T12:18:46.061Z,13.00
2022-08-25T12:24:56.630Z,13.50
2022-08-25T12:31:05.614Z,15.35
2022-08-25T12:37:16.796Z,12.13
2022-08-25T12:43:26.770Z,12.32
2022-08-25T12:49:35.809Z,12.65
2022-08-25T12:55:47.298Z,12.15
2022-08-25T13:02:36.585Z,15.23
2022-08-25T13:09:00.997Z,14.15
2022-08-25T13:15:02.975Z,14.38
2022-08-25T13:21:18.415Z,17.02
2022-08-25T13:34:02.245Z,12.02
2022-08-25T13:40:10.193Z,13.38
2022-08-25T13:46:15.358Z,15.45
2022-08-25T13:52:29.265Z,14.55
2022-08-25T13:58:44.492Z,13.20
2022-08-25T14:04:51.104Z,13.47
2022-08-25T14:11:14.893Z,12.50
2022-08-25T14:17:36.343Z,18.63
2022-08-25T14:23:40.489Z,14.77
2022-08-25T14:29:42.173Z,15.00
2022-08-25T14:35:48.049Z,13.25
2022-08-25T14:41:52.518Z,12.95
2022-08-25T14:48:01.876Z,9.40
2022-08-25T14:54:07.296Z,14.65
2022-08-25T15:00:11.835Z,15.10
2022-08-25T15:06:16.437Z,11.73
2022-08-25T15:12:37.418Z,10.88
2022-08-25T15:18:39.875Z,17.23
2022-08-25T15:24:43.762Z,13.93
2022-08-25T15:30:46.466Z,14.88
2022-08-25T15:36:48.883Z,15.13
2022-08-25T15:42:50.658Z,18.60
2022-08-25T15:48:52.506Z,17.50
2022-08-25T15:54:54.290Z,18.63
2022-08-25T16:00:56.643Z,12.60
2022-08-25T16:07:00.422Z,17.00
2022-08-25T16:13:03.495Z,14.30
2022-08-25T16:19:06.736Z,12.30
2022-08-25T16:25:09.033Z,18.33
2022-08-25T16:31:13.845Z,15.32
2022-08-25T16:37:15.650Z,11.38
2022-08-25T16:43:17.670Z,14.13
2022-08-25T16:49:19.662Z,14.30
2022-08-25T16:55:22.651Z,15.05
2022-08-25T17:01:26.762Z,18.50
2022-08-25T17:07:28.503Z,12.95
2022-08-25T17:13:31.337Z,19.02
2022-08-25T17:19:33.265Z,13.70
2022-08-25T17:25:41.280Z,12.52
2022-08-25T17:31:48.287Z,17.08
2022-08-25T17:37:50.570Z,10.85
2022-08-25T17:43:52.429Z,13.13
2022-08-25T17:49:55.398Z,18.50
2022-08-25T17:56:04.875Z,12.20
2022-08-25T18:02:06.739Z,12.45
2022-08-25T18:08:10.699Z,10.95
2022-08-25T18:14:14.321Z,15.48
2022-08-25T18:20:16.379Z,14.18
2022-08-25T18:26:24.665Z,16.00
2022-08-25T18:32:27.889Z,14.93
2022-08-25T18:38:49.553Z,15.60
2022-08-25T18:44:51.361Z,20.02
2022-08-25T18:50:54.279Z,17.35
2022-08-25T18:56:56.330Z,18.08
2022-08-25T19:02:59.720Z,14.85
2022-08-25T19:09:02.079Z,16.77
2022-08-25T19:15:05.432Z,19.02
2022-08-25T19:21:07.551Z,15.85
2022-08-25T19:27:17.854Z,19.83
2022-08-25T19:33:37.704Z,19.20
2022-08-25T19:40:17.648Z,22.42
2022-08-25T19:46:39.564Z,25.15
2022-08-25T19:52:44.072Z,21.83
2022-08-25T19:58:45.968Z,24.50
2022-08-25T20:04:52.378Z,23.15
2022-08-25T20:10:55.677Z,20.23
2022-08-25T20:17:01.797Z,18.40
2022-08-25T20:23:26.448Z,20.42
2022-08-25T20:29:31.083Z,23.75
2022-08-25T20:35:37.130Z,24.50
2022-08-25T20:41:42.191Z,30.73
2022-08-25T20:47:56.336Z,24.00
2022-08-25T20:53:59.034Z,16.27
2022-08-25T21:00:10.263Z,24.27
2022-08-25T21:06:14.381Z,21.33
2022-08-25T21:12:19.398Z,20.87
2022-08-25T21:18:21.140Z,30.23
2022-08-25T21:24:22.862Z,26.45
2022-08-25T21:30:24.602Z,26.85
2022-08-25T21:36:29.040Z,30.42
2022-08-25T21:42:30.763Z,23.83
2022-08-25T21:48:32.552Z,26.30
2022-08-25T21:54:34.337Z,29.75
2022-08-25T22:00:37.047Z,23.67
2022-08-25T22:06:39.646Z,27.90
2022-08-25T22:12:41.374Z,24.23
2022-08-25T22:18:43.548Z,26.60
2022-08-25T22:24:45.259Z,26.42
2022-08-25T22:30:47.961Z,22.80
2022-08-25T22:36:49.873Z,23.88
2022-08-25T22:42:53.553Z,29.10
2022-08-25T22:48:57.487Z,30.95
2022-08-25T22:54:59.571Z,28.05
2022-08-25T23:01:01.659Z,25.80
2022-08-25T23:07:04.001Z,30.65
2022-08-25T23:13:07.240Z,26.60
2022-08-25T23:19:13.972Z,28.33
2022-08-25T23:25:17.279Z,34.67
2022-08-25T23:31:20.014Z,30.23
2022-08-25T23:37:22.896Z,32.60
2022-08-25T23:43:25.603Z,35.38
2022-08-25T23:49:27.360Z,34.45
2022-08-25T23:55:33.466Z,32.33
